sensor_id;sensor_type;location;lat;lon;timestamp;P1;durP1;ratioP1;P2;durP2;ratioP2
14326;SDS011;7247;53.330;-1.180;2023-11-21T00:02:15;3.40;;;1.40;;
14326;SDS011;7247;53.330;-1.180;2023-11-21T00:04:43;3.57;;;1.30;;
14326;SDS011;7247;53.330;-1.180;2023-11-21T00:07:10;1.37;;;1.20;;
14326;SDS011;7247;53.330;-1.180;2023-11-21T00:09:37;2.43;;;1.30;;
14326;SDS011;7247;53.330;-1.180;2023-11-21T00:12:03;2.30;;;1.50;;
14326;SDS011;7247;53.330;-1.180;2023-11-21T00:14:31;2.73;;;1.33;;
14326;SDS011;7247;53.330;-1.180;2023-11-21T00:16:58;3.53;;;1.50;;
14326;SDS011;7247;53.330;-1.180;2023-11-21T00:19:25;2.03;;;1.40;;
14326;SDS011;7247;53.330;-1.180;2023-11-21T00:21:53;4.03;;;1.27;;
14326;SDS011;7247;53.330;-1.180;2023-11-21T00:24:19;3.07;;;1.47;;
14326;SDS011;7247;53.330;-1.180;2023-11-21T00:26:45;1.53;;;1.27;;
14326;SDS011;7247;53.330;-1.180;2023-11-21T00:29:13;2.73;;;1.37;;
14326;SDS011;7247;53.330;-1.180;2023-11-21T00:31:42;3.83;;;1.30;;
14326;SDS011;7247;53.330;-1.180;2023-11-21T00:34:08;1.33;;;1.03;;
14326;SDS011;7247;53.330;-1.180;2023-11-21T00:36:35;3.13;;;1.43;;
14326;SDS011;7247;53.330;-1.180;2023-11-21T00:39:03;3.17;;;1.20;;
14326;SDS011;7247;53.330;-1.180;2023-11-21T00:41:30;2.77;;;1.30;;
14326;SDS011;7247;53.330;-1.180;2023-11-21T00:43:57;4.37;;;1.50;;
14326;SDS011;7247;53.330;-1.180;2023-11-21T00:46:24;1.73;;;1.20;;
14326;SDS011;7247;53.330;-1.180;2023-11-21T00:48:52;3.60;;;1.23;;
14326;SDS011;7247;53.330;-1.180;2023-11-21T00:51:19;3.23;;;1.10;;
14326;SDS011;7247;53.330;-1.180;2023-11-21T00:53:45;2.70;;;1.10;;
14326;SDS011;7247;53.330;-1.180;2023-11-21T00:56:13;2.60;;;1.00;;
14326;SDS011;7247;53.330;-1.180;2023-11-21T00:58:40;3.13;;;1.27;;
14326;SDS011;7247;53.330;-1.180;2023-11-21T01:01:11;1.30;;;0.90;;
14326;SDS011;7247;53.330;-1.180;2023-11-21T01:03:38;1.93;;;1.00;;
14326;SDS011;7247;53.330;-1.180;2023-11-21T01:06:04;2.23;;;1.60;;
14326;SDS011;7247;53.330;-1.180;2023-11-21T01:08:32;3.83;;;1.20;;
14326;SDS011;7247;53.330;-1.180;2023-11-21T01:10:58;2.30;;;1.00;;
14326;SDS011;7247;53.330;-1.180;2023-11-21T01:13:26;2.80;;;1.10;;
14326;SDS011;7247;53.330;-1.180;2023-11-21T01:15:54;2.07;;;0.87;;
14326;SDS011;7247;53.330;-1.180;2023-11-21T01:18:21;3.53;;;0.90;;
14326;SDS011;7247;53.330;-1.180;2023-11-21T01:20:47;2.10;;;1.10;;
14326;SDS011;7247;53.330;-1.180;2023-11-21T01:23:14;2.50;;;1.00;;
14326;SDS011;7247;53.330;-1.180;2023-11-21T01:25:40;1.63;;;1.00;;
14326;SDS011;7247;53.330;-1.180;2023-11-21T01:28:06;1.73;;;1.00;;
14326;SDS011;7247;53.330;-1.180;2023-11-21T01:30:33;1.80;;;1.10;;
14326;SDS011;7247;53.330;-1.180;2023-11-21T01:33:00;3.67;;;1.10;;
14326;SDS011;7247;53.330;-1.180;2023-11-21T01:35:27;4.50;;;1.20;;
14326;SDS011;7247;53.330;-1.180;2023-11-21T01:37:53;3.27;;;1.10;;
14326;SDS011;7247;53.330;-1.180;2023-11-21T01:40:19;3.13;;;1.23;;
14326;SDS011;7247;53.330;-1.180;2023-11-21T01:42:46;1.83;;;0.90;;
14326;SDS011;7247;53.330;-1.180;2023-11-21T01:45:13;6.23;;;1.30;;
14326;SDS011;7247;53.330;-1.180;2023-11-21T01:47:42;3.13;;;1.13;;
14326;SDS011;7247;53.330;-1.180;2023-11-21T01:50:08;1.37;;;1.00;;
14326;SDS011;7247;53.330;-1.180;2023-11-21T01:52:37;4.80;;;1.10;;
14326;SDS011;7247;53.330;-1.180;2023-11-21T01:55:04;2.50;;;1.10;;
14326;SDS011;7247;53.330;-1.180;2023-11-21T01:57:33;3.83;;;1.30;;
14326;SDS011;7247;53.330;-1.180;2023-11-21T02:00:00;2.67;;;1.20;;
14326;SDS011;7247;53.330;-1.180;2023-11-21T02:02:41;2.40;;;0.90;;
14326;SDS011;7247;53.330;-1.180;2023-11-21T02:05:08;4.67;;;1.10;;
14326;SDS011;7247;53.330;-1.180;2023-11-21T02:07:35;3.07;;;1.30;;
14326;SDS011;7247;53.330;-1.180;2023-11-21T02:10:02;4.03;;;1.10;;
14326;SDS011;7247;53.330;-1.180;2023-11-21T02:12:29;4.30;;;1.00;;
14326;SDS011;7247;53.330;-1.180;2023-11-21T02:14:55;2.00;;;0.90;;
14326;SDS011;7247;53.330;-1.180;2023-11-21T02:17:21;3.57;;;0.80;;
14326;SDS011;7247;53.330;-1.180;2023-11-21T02:19:49;3.13;;;1.10;;
14326;SDS011;7247;53.330;-1.180;2023-11-21T02:22:17;2.87;;;0.83;;
14326;SDS011;7247;53.330;-1.180;2023-11-21T02:24:46;3.87;;;1.07;;
14326;SDS011;7247;53.330;-1.180;2023-11-21T02:27:13;2.53;;;0.90;;
14326;SDS011;7247;53.330;-1.180;2023-11-21T02:29:42;3.57;;;1.20;;
14326;SDS011;7247;53.330;-1.180;2023-11-21T02:32:08;2.37;;;1.00;;
14326;SDS011;7247;53.330;-1.180;2023-11-21T02:34:35;1.47;;;0.67;;
14326;SDS011;7247;53.330;-1.180;2023-11-21T02:37:03;3.07;;;1.10;;
14326;SDS011;7247;53.330;-1.180;2023-11-21T02:39:30;1.93;;;0.80;;
14326;SDS011;7247;53.330;-1.180;2023-11-21T02:41:58;2.00;;;0.70;;
14326;SDS011;7247;53.330;-1.180;2023-11-21T02:44:25;2.27;;;0.80;;
14326;SDS011;7247;53.330;-1.180;2023-11-21T02:46:51;3.87;;;1.00;;
14326;SDS011;7247;53.330;-1.180;2023-11-21T02:49:18;1.93;;;0.83;;
14326;SDS011;7247;53.330;-1.180;2023-11-21T02:51:44;1.97;;;0.97;;
14326;SDS011;7247;53.330;-1.180;2023-11-21T02:54:11;3.90;;;1.07;;
14326;SDS011;7247;53.330;-1.180;2023-11-21T02:56:37;5.17;;;0.83;;
14326;SDS011;7247;53.330;-1.180;2023-11-21T02:59:06;2.47;;;1.10;;
14326;SDS011;7247;53.330;-1.180;2023-11-21T03:01:32;2.77;;;1.00;;
14326;SDS011;7247;53.330;-1.180;2023-11-21T03:03:59;3.13;;;0.70;;
14326;SDS011;7247;53.330;-1.180;2023-11-21T03:06:25;2.33;;;0.90;;
14326;SDS011;7247;53.330;-1.180;2023-11-21T03:08:51;4.17;;;1.10;;
14326;SDS011;7247;53.330;-1.180;2023-11-21T03:11:18;1.57;;;0.80;;
14326;SDS011;7247;53.330;-1.180;2023-11-21T03:13:44;2.50;;;0.90;;
14326;SDS011;7247;53.330;-1.180;2023-11-21T03:16:12;2.90;;;0.70;;
14326;SDS011;7247;53.330;-1.180;2023-11-21T03:18:39;3.10;;;1.10;;
14326;SDS011;7247;53.330;-1.180;2023-11-21T03:21:05;2.23;;;0.90;;
14326;SDS011;7247;53.330;-1.180;2023-11-21T03:23:33;1.40;;;0.70;;
14326;SDS011;7247;53.330;-1.180;2023-11-21T03:26:00;2.30;;;0.70;;
14326;SDS011;7247;53.330;-1.180;2023-11-21T03:28:26;1.97;;;0.87;;
14326;SDS011;7247;53.330;-1.180;2023-11-21T03:30:53;2.03;;;0.60;;
14326;SDS011;7247;53.330;-1.180;2023-11-21T03:33:20;1.50;;;0.67;;
14326;SDS011;7247;53.330;-1.180;2023-11-21T03:35:47;1.53;;;0.70;;
14326;SDS011;7247;53.330;-1.180;2023-11-21T03:38:14;1.80;;;0.87;;
14326;SDS011;7247;53.330;-1.180;2023-11-21T03:40:41;2.63;;;0.90;;
14326;SDS011;7247;53.330;-1.180;2023-11-21T03:43:07;3.00;;;0.80;;
14326;SDS011;7247;53.330;-1.180;2023-11-21T03:45:33;2.17;;;0.80;;
14326;SDS011;7247;53.330;-1.180;2023-11-21T03:48:00;1.77;;;0.70;;
14326;SDS011;7247;53.330;-1.180;2023-11-21T03:50:28;0.80;;;0.40;;
14326;SDS011;7247;53.330;-1.180;2023-11-21T03:52:55;0.87;;;0.50;;
14326;SDS011;7247;53.330;-1.180;2023-11-21T03:55:21;1.70;;;0.60;;
14326;SDS011;7247;53.330;-1.180;2023-11-21T03:57:48;1.00;;;0.60;;
14326;SDS011;7247;53.330;-1.180;2023-11-21T04:00:15;1.03;;;0.63;;
14326;SDS011;7247;53.330;-1.180;2023-11-21T04:02:41;0.60;;;0.40;;
14326;SDS011;7247;53.330;-1.180;2023-11-21T04:05:08;0.77;;;0.50;;
14326;SDS011;7247;53.330;-1.180;2023-11-21T04:07:36;0.40;;;0.30;;
14326;SDS011;7247;53.330;-1.180;2023-11-21T04:10:03;1.33;;;0.40;;
14326;SDS011;7247;53.330;-1.180;2023-11-21T04:12:32;1.23;;;0.50;;
14326;SDS011;7247;53.330;-1.180;2023-11-21T04:14:58;1.13;;;0.50;;
14326;SDS011;7247;53.330;-1.180;2023-11-21T04:17:25;0.80;;;0.40;;
14326;SDS011;7247;53.330;-1.180;2023-11-21T04:19:51;0.60;;;0.60;;
14326;SDS011;7247;53.330;-1.180;2023-11-21T04:22:18;0.53;;;0.40;;
14326;SDS011;7247;53.330;-1.180;2023-11-21T04:24:45;0.70;;;0.50;;
14326;SDS011;7247;53.330;-1.180;2023-11-21T04:27:12;1.43;;;0.70;;
14326;SDS011;7247;53.330;-1.180;2023-11-21T04:29:39;1.07;;;0.40;;
14326;SDS011;7247;53.330;-1.180;2023-11-21T04:32:06;0.70;;;0.70;;
14326;SDS011;7247;53.330;-1.180;2023-11-21T04:34:33;0.60;;;0.60;;
14326;SDS011;7247;53.330;-1.180;2023-11-21T04:36:59;0.87;;;0.73;;
14326;SDS011;7247;53.330;-1.180;2023-11-21T04:39:26;1.83;;;0.70;;
14326;SDS011;7247;53.330;-1.180;2023-11-21T04:41:53;2.40;;;1.00;;
14326;SDS011;7247;53.330;-1.180;2023-11-21T04:44:20;1.90;;;0.80;;
14326;SDS011;7247;53.330;-1.180;2023-11-21T04:46:46;1.07;;;0.70;;
14326;SDS011;7247;53.330;-1.180;2023-11-21T04:49:13;0.83;;;0.70;;
14326;SDS011;7247;53.330;-1.180;2023-11-21T04:51:40;0.50;;;0.50;;
14326;SDS011;7247;53.330;-1.180;2023-11-21T04:54:06;1.40;;;0.60;;
14326;SDS011;7247;53.330;-1.180;2023-11-21T04:56:32;1.77;;;0.90;;
14326;SDS011;7247;53.330;-1.180;2023-11-21T04:59:00;2.40;;;0.80;;
14326;SDS011;7247;53.330;-1.180;2023-11-21T05:01:27;1.13;;;0.83;;
14326;SDS011;7247;53.330;-1.180;2023-11-21T05:03:53;1.83;;;1.03;;
14326;SDS011;7247;53.330;-1.180;2023-11-21T05:06:20;2.03;;;1.00;;
14326;SDS011;7247;53.330;-1.180;2023-11-21T05:08:46;1.67;;;0.90;;
14326;SDS011;7247;53.330;-1.180;2023-11-21T05:11:22;0.80;;;0.70;;
14326;SDS011;7247;53.330;-1.180;2023-11-21T05:13:49;1.57;;;0.90;;
14326;SDS011;7247;53.330;-1.180;2023-11-21T05:16:16;1.37;;;1.03;;
14326;SDS011;7247;53.330;-1.180;2023-11-21T05:18:43;1.33;;;1.00;;
14326;SDS011;7247;53.330;-1.180;2023-11-21T05:21:10;1.90;;;0.80;;
14326;SDS011;7247;53.330;-1.180;2023-11-21T05:23:36;1.33;;;1.00;;
14326;SDS011;7247;53.330;-1.180;2023-11-21T05:26:03;1.20;;;1.10;;
14326;SDS011;7247;53.330;-1.180;2023-11-21T05:28:30;2.50;;;1.20;;
14326;SDS011;7247;53.330;-1.180;2023-11-21T05:30:56;2.60;;;1.23;;
14326;SDS011;7247;53.330;-1.180;2023-11-21T05:33:24;1.27;;;1.00;;
14326;SDS011;7247;53.330;-1.180;2023-11-21T05:35:50;1.20;;;1.10;;
14326;SDS011;7247;53.330;-1.180;2023-11-21T05:38:17;2.50;;;1.10;;
14326;SDS011;7247;53.330;-1.180;2023-11-21T05:40:43;1.30;;;1.13;;
14326;SDS011;7247;53.330;-1.180;2023-11-21T05:43:10;1.43;;;1.30;;
14326;SDS011;7247;53.330;-1.180;2023-11-21T05:45:37;1.30;;;1.20;;
14326;SDS011;7247;53.330;-1.180;2023-11-21T05:48:03;3.07;;;1.50;;
14326;SDS011;7247;53.330;-1.180;2023-11-21T05:50:32;1.50;;;1.40;;
14326;SDS011;7247;53.330;-1.180;2023-11-21T05:52:58;2.37;;;1.60;;
14326;SDS011;7247;53.330;-1.180;2023-11-21T05:55:26;3.10;;;1.57;;
14326;SDS011;7247;53.330;-1.180;2023-11-21T05:57:52;1.90;;;1.60;;
14326;SDS011;7247;53.330;-1.180;2023-11-21T06:00:18;2.43;;;1.50;;
14326;SDS011;7247;53.330;-1.180;2023-11-21T06:02:46;3.03;;;1.20;;
14326;SDS011;7247;53.330;-1.180;2023-11-21T06:05:15;1.67;;;1.10;;
14326;SDS011;7247;53.330;-1.180;2023-11-21T06:07:44;2.37;;;1.20;;
14326;SDS011;7247;53.330;-1.180;2023-11-21T06:10:10;0.93;;;0.87;;
14326;SDS011;7247;53.330;-1.180;2023-11-21T06:12:38;2.40;;;1.10;;
14326;SDS011;7247;53.330;-1.180;2023-11-21T06:15:05;2.03;;;1.10;;
14326;SDS011;7247;53.330;-1.180;2023-11-21T06:17:33;2.20;;;0.97;;
14326;SDS011;7247;53.330;-1.180;2023-11-21T06:20:01;2.27;;;1.07;;
14326;SDS011;7247;53.330;-1.180;2023-11-21T06:22:29;1.57;;;0.80;;
14326;SDS011;7247;53.330;-1.180;2023-11-21T06:24:57;2.53;;;1.00;;
14326;SDS011;7247;53.330;-1.180;2023-11-21T06:27:23;1.53;;;1.10;;
14326;SDS011;7247;53.330;-1.180;2023-11-21T06:29:50;1.80;;;1.00;;
14326;SDS011;7247;53.330;-1.180;2023-11-21T06:32:16;2.17;;;1.10;;
14326;SDS011;7247;53.330;-1.180;2023-11-21T06:34:43;2.43;;;1.13;;
14326;SDS011;7247;53.330;-1.180;2023-11-21T06:37:09;1.13;;;1.03;;
14326;SDS011;7247;53.330;-1.180;2023-11-21T06:39:37;1.20;;;1.07;;
14326;SDS011;7247;53.330;-1.180;2023-11-21T06:42:05;1.30;;;1.10;;
14326;SDS011;7247;53.330;-1.180;2023-11-21T06:44:31;2.43;;;0.93;;
14326;SDS011;7247;53.330;-1.180;2023-11-21T06:46:58;1.97;;;1.30;;
14326;SDS011;7247;53.330;-1.180;2023-11-21T06:49:25;4.00;;;1.47;;
14326;SDS011;7247;53.330;-1.180;2023-11-21T06:51:51;3.87;;;1.10;;
14326;SDS011;7247;53.330;-1.180;2023-11-21T06:54:20;3.17;;;1.50;;
14326;SDS011;7247;53.330;-1.180;2023-11-21T06:56:46;3.63;;;1.20;;
14326;SDS011;7247;53.330;-1.180;2023-11-21T06:59:14;2.67;;;1.10;;
14326;SDS011;7247;53.330;-1.180;2023-11-21T07:01:40;4.23;;;1.20;;
14326;SDS011;7247;53.330;-1.180;2023-11-21T07:04:08;3.13;;;1.20;;
14326;SDS011;7247;53.330;-1.180;2023-11-21T07:06:35;4.10;;;1.33;;
14326;SDS011;7247;53.330;-1.180;2023-11-21T07:09:02;3.07;;;1.30;;
14326;SDS011;7247;53.330;-1.180;2023-11-21T07:11:28;2.37;;;1.50;;
14326;SDS011;7247;53.330;-1.180;2023-11-21T07:13:55;2.70;;;1.40;;
14326;SDS011;7247;53.330;-1.180;2023-11-21T07:16:23;4.10;;;1.60;;
14326;SDS011;7247;53.330;-1.180;2023-11-21T07:18:50;2.57;;;1.50;;
14326;SDS011;7247;53.330;-1.180;2023-11-21T07:21:16;3.03;;;1.53;;
14326;SDS011;7247;53.330;-1.180;2023-11-21T07:23:43;5.13;;;1.70;;
14326;SDS011;7247;53.330;-1.180;2023-11-21T07:26:09;5.03;;;1.67;;
14326;SDS011;7247;53.330;-1.180;2023-11-21T07:28:37;3.83;;;1.53;;
14326;SDS011;7247;53.330;-1.180;2023-11-21T07:31:04;2.90;;;1.30;;
14326;SDS011;7247;53.330;-1.180;2023-11-21T07:33:32;4.70;;;1.40;;
14326;SDS011;7247;53.330;-1.180;2023-11-21T07:35:58;4.27;;;1.50;;
14326;SDS011;7247;53.330;-1.180;2023-11-21T07:38:24;3.10;;;1.30;;
14326;SDS011;7247;53.330;-1.180;2023-11-21T07:40:51;5.67;;;1.30;;
14326;SDS011;7247;53.330;-1.180;2023-11-21T07:43:17;3.43;;;1.33;;
14326;SDS011;7247;53.330;-1.180;2023-11-21T07:45:44;4.07;;;1.30;;
14326;SDS011;7247;53.330;-1.180;2023-11-21T07:48:11;5.37;;;1.73;;
14326;SDS011;7247;53.330;-1.180;2023-11-21T07:50:38;2.77;;;1.10;;
14326;SDS011;7247;53.330;-1.180;2023-11-21T07:53:05;5.77;;;1.40;;
14326;SDS011;7247;53.330;-1.180;2023-11-21T07:55:31;2.97;;;1.20;;
14326;SDS011;7247;53.330;-1.180;2023-11-21T07:57:58;2.63;;;1.30;;
14326;SDS011;7247;53.330;-1.180;2023-11-21T08:00:24;4.80;;;1.57;;
14326;SDS011;7247;53.330;-1.180;2023-11-21T08:02:55;5.80;;;1.80;;
14326;SDS011;7247;53.330;-1.180;2023-11-21T08:05:21;3.70;;;1.50;;
14326;SDS011;7247;53.330;-1.180;2023-11-21T08:07:49;3.23;;;1.50;;
14326;SDS011;7247;53.330;-1.180;2023-11-21T08:10:15;3.03;;;1.40;;
14326;SDS011;7247;53.330;-1.180;2023-11-21T08:12:42;5.70;;;1.63;;
14326;SDS011;7247;53.330;-1.180;2023-11-21T08:15:09;2.53;;;1.53;;
14326;SDS011;7247;53.330;-1.180;2023-11-21T08:17:35;4.47;;;1.87;;
14326;SDS011;7247;53.330;-1.180;2023-11-21T08:20:02;3.60;;;1.90;;
14326;SDS011;7247;53.330;-1.180;2023-11-21T08:22:28;5.43;;;1.90;;
14326;SDS011;7247;53.330;-1.180;2023-11-21T08:24:57;5.80;;;1.93;;
14326;SDS011;7247;53.330;-1.180;2023-11-21T08:27:23;5.60;;;1.87;;
14326;SDS011;7247;53.330;-1.180;2023-11-21T08:29:49;5.17;;;2.17;;
14326;SDS011;7247;53.330;-1.180;2023-11-21T08:32:17;4.97;;;1.80;;
14326;SDS011;7247;53.330;-1.180;2023-11-21T08:34:44;6.03;;;1.70;;
14326;SDS011;7247;53.330;-1.180;2023-11-21T08:37:10;2.83;;;1.73;;
14326;SDS011;7247;53.330;-1.180;2023-11-21T08:39:37;6.57;;;1.90;;
14326;SDS011;7247;53.330;-1.180;2023-11-21T08:42:04;3.73;;;1.60;;
14326;SDS011;7247;53.330;-1.180;2023-11-21T08:44:30;4.03;;;1.73;;
14326;SDS011;7247;53.330;-1.180;2023-11-21T08:46:57;5.23;;;1.80;;
14326;SDS011;7247;53.330;-1.180;2023-11-21T08:49:23;2.90;;;1.97;;
14326;SDS011;7247;53.330;-1.180;2023-11-21T08:51:51;4.77;;;2.13;;
14326;SDS011;7247;53.330;-1.180;2023-11-21T08:54:17;4.03;;;2.00;;
14326;SDS011;7247;53.330;-1.180;2023-11-21T08:56:44;4.07;;;1.90;;
14326;SDS011;7247;53.330;-1.180;2023-11-21T08:59:12;3.40;;;1.93;;
14326;SDS011;7247;53.330;-1.180;2023-11-21T09:01:40;6.47;;;2.00;;
14326;SDS011;7247;53.330;-1.180;2023-11-21T09:04:06;5.10;;;2.40;;
14326;SDS011;7247;53.330;-1.180;2023-11-21T09:06:33;8.57;;;2.67;;
14326;SDS011;7247;53.330;-1.180;2023-11-21T09:09:00;5.10;;;2.43;;
14326;SDS011;7247;53.330;-1.180;2023-11-21T09:11:27;5.73;;;2.67;;
14326;SDS011;7247;53.330;-1.180;2023-11-21T09:13:58;7.63;;;2.60;;
14326;SDS011;7247;53.330;-1.180;2023-11-21T09:16:26;6.47;;;1.97;;
14326;SDS011;7247;53.330;-1.180;2023-11-21T09:18:52;7.47;;;2.20;;
14326;SDS011;7247;53.330;-1.180;2023-11-21T09:21:19;5.93;;;2.13;;
14326;SDS011;7247;53.330;-1.180;2023-11-21T09:23:45;8.13;;;2.40;;
14326;SDS011;7247;53.330;-1.180;2023-11-21T09:26:11;9.30;;;2.33;;
14326;SDS011;7247;53.330;-1.180;2023-11-21T09:28:39;5.40;;;2.43;;
14326;SDS011;7247;53.330;-1.180;2023-11-21T09:31:08;11.20;;;2.90;;
14326;SDS011;7247;53.330;-1.180;2023-11-21T09:33:36;11.33;;;2.97;;
14326;SDS011;7247;53.330;-1.180;2023-11-21T09:36:03;9.93;;;3.07;;
14326;SDS011;7247;53.330;-1.180;2023-11-21T09:38:30;5.47;;;2.60;;
14326;SDS011;7247;53.330;-1.180;2023-11-21T09:40:56;8.83;;;2.87;;
14326;SDS011;7247;53.330;-1.180;2023-11-21T09:43:23;8.77;;;2.93;;
14326;SDS011;7247;53.330;-1.180;2023-11-21T09:45:54;6.77;;;2.50;;
14326;SDS011;7247;53.330;-1.180;2023-11-21T09:48:21;10.17;;;2.57;;
14326;SDS011;7247;53.330;-1.180;2023-11-21T09:50:51;7.07;;;2.50;;
14326;SDS011;7247;53.330;-1.180;2023-11-21T09:53:20;12.23;;;2.60;;
14326;SDS011;7247;53.330;-1.180;2023-11-21T09:55:47;12.03;;;2.70;;
14326;SDS011;7247;53.330;-1.180;2023-11-21T09:58:15;8.83;;;2.27;;
14326;SDS011;7247;53.330;-1.180;2023-11-21T10:00:42;8.57;;;2.37;;
14326;SDS011;7247;53.330;-1.180;2023-11-21T10:03:09;11.13;;;2.17;;
14326;SDS011;7247;53.330;-1.180;2023-11-21T10:05:35;7.23;;;1.93;;
14326;SDS011;7247;53.330;-1.180;2023-11-21T10:08:03;6.33;;;1.73;;
14326;SDS011;7247;53.330;-1.180;2023-11-21T10:10:31;8.77;;;1.90;;
14326;SDS011;7247;53.330;-1.180;2023-11-21T10:13:02;7.83;;;1.90;;
14326;SDS011;7247;53.330;-1.180;2023-11-21T10:15:31;10.13;;;2.23;;
14326;SDS011;7247;53.330;-1.180;2023-11-21T10:17:59;8.27;;;2.20;;
14326;SDS011;7247;53.330;-1.180;2023-11-21T10:20:28;7.73;;;2.23;;
14326;SDS011;7247;53.330;-1.180;2023-11-21T10:22:54;10.50;;;2.57;;
14326;SDS011;7247;53.330;-1.180;2023-11-21T10:25:23;8.53;;;1.80;;
14326;SDS011;7247;53.330;-1.180;2023-11-21T10:27:54;6.83;;;2.40;;
14326;SDS011;7247;53.330;-1.180;2023-11-21T10:30:24;7.13;;;1.90;;
14326;SDS011;7247;53.330;-1.180;2023-11-21T10:32:56;9.47;;;1.77;;
14326;SDS011;7247;53.330;-1.180;2023-11-21T10:35:24;9.57;;;2.43;;
14326;SDS011;7247;53.330;-1.180;2023-11-21T10:37:56;10.03;;;2.67;;
14326;SDS011;7247;53.330;-1.180;2023-11-21T10:40:27;10.73;;;1.97;;
14326;SDS011;7247;53.330;-1.180;2023-11-21T10:42:54;11.10;;;2.33;;
14326;SDS011;7247;53.330;-1.180;2023-11-21T10:45:23;10.13;;;2.20;;
14326;SDS011;7247;53.330;-1.180;2023-11-21T10:47:49;8.87;;;2.50;;
14326;SDS011;7247;53.330;-1.180;2023-11-21T10:50:18;8.03;;;2.40;;
14326;SDS011;7247;53.330;-1.180;2023-11-21T10:52:45;8.37;;;2.40;;
14326;SDS011;7247;53.330;-1.180;2023-11-21T10:55:18;7.10;;;1.90;;
14326;SDS011;7247;53.330;-1.180;2023-11-21T10:57:48;8.63;;;1.87;;
14326;SDS011;7247;53.330;-1.180;2023-11-21T11:00:15;5.03;;;2.00;;
14326;SDS011;7247;53.330;-1.180;2023-11-21T11:02:44;9.33;;;2.20;;
14326;SDS011;7247;53.330;-1.180;2023-11-21T11:05:12;6.93;;;1.90;;
14326;SDS011;7247;53.330;-1.180;2023-11-21T11:07:40;8.57;;;2.20;;
14326;SDS011;7247;53.330;-1.180;2023-11-21T11:10:08;7.83;;;2.50;;
14326;SDS011;7247;53.330;-1.180;2023-11-21T11:12:39;11.10;;;2.20;;
14326;SDS011;7247;53.330;-1.180;2023-11-21T11:15:08;7.37;;;2.27;;
14326;SDS011;7247;53.330;-1.180;2023-11-21T11:17:35;9.73;;;2.50;;
14326;SDS011;7247;53.330;-1.180;2023-11-21T11:20:03;6.70;;;2.00;;
14326;SDS011;7247;53.330;-1.180;2023-11-21T11:22:34;6.43;;;1.80;;
14326;SDS011;7247;53.330;-1.180;2023-11-21T11:25:11;7.13;;;2.27;;
14326;SDS011;7247;53.330;-1.180;2023-11-21T11:27:42;6.20;;;1.77;;
14326;SDS011;7247;53.330;-1.180;2023-11-21T11:30:15;9.50;;;2.50;;
14326;SDS011;7247;53.330;-1.180;2023-11-21T11:32:47;5.97;;;1.83;;
14326;SDS011;7247;53.330;-1.180;2023-11-21T11:35:23;7.23;;;2.10;;
14326;SDS011;7247;53.330;-1.180;2023-11-21T11:37:50;8.87;;;2.37;;
14326;SDS011;7247;53.330;-1.180;2023-11-21T11:40:17;8.27;;;2.50;;
14326;SDS011;7247;53.330;-1.180;2023-11-21T11:42:55;7.23;;;2.30;;
14326;SDS011;7247;53.330;-1.180;2023-11-21T11:45:23;7.90;;;2.13;;
14326;SDS011;7247;53.330;-1.180;2023-11-21T11:47:56;4.23;;;2.00;;
14326;SDS011;7247;53.330;-1.180;2023-11-21T11:50:22;6.10;;;2.17;;
14326;SDS011;7247;53.330;-1.180;2023-11-21T11:52:51;6.37;;;2.17;;
14326;SDS011;7247;53.330;-1.180;2023-11-21T11:55:18;7.07;;;1.97;;
14326;SDS011;7247;53.330;-1.180;2023-11-21T11:57:45;8.37;;;1.93;;
14326;SDS011;7247;53.330;-1.180;2023-11-21T12:00:14;7.27;;;2.10;;
14326;SDS011;7247;53.330;-1.180;2023-11-21T12:02:45;10.20;;;2.03;;
14326;SDS011;7247;53.330;-1.180;2023-11-21T12:05:13;11.73;;;1.93;;
14326;SDS011;7247;53.330;-1.180;2023-11-21T12:07:42;6.27;;;2.07;;
14326;SDS011;7247;53.330;-1.180;2023-11-21T12:10:10;9.77;;;2.07;;
14326;SDS011;7247;53.330;-1.180;2023-11-21T12:12:37;7.33;;;1.90;;
14326;SDS011;7247;53.330;-1.180;2023-11-21T12:15:04;9.40;;;2.10;;
14326;SDS011;7247;53.330;-1.180;2023-11-21T12:17:31;7.80;;;1.97;;
14326;SDS011;7247;53.330;-1.180;2023-11-21T12:20:02;8.93;;;2.43;;
14326;SDS011;7247;53.330;-1.180;2023-11-21T12:22:30;9.57;;;2.07;;
14326;SDS011;7247;53.330;-1.180;2023-11-21T12:24:57;8.77;;;2.13;;
14326;SDS011;7247;53.330;-1.180;2023-11-21T12:27:23;6.97;;;2.03;;
14326;SDS011;7247;53.330;-1.180;2023-11-21T12:29:49;7.60;;;2.07;;
14326;SDS011;7247;53.330;-1.180;2023-11-21T12:32:16;5.67;;;2.10;;
14326;SDS011;7247;53.330;-1.180;2023-11-21T12:34:43;9.77;;;2.03;;
14326;SDS011;7247;53.330;-1.180;2023-11-21T12:37:11;6.53;;;2.30;;
14326;SDS011;7247;53.330;-1.180;2023-11-21T12:39:37;6.13;;;2.07;;
14326;SDS011;7247;53.330;-1.180;2023-11-21T12:42:04;5.37;;;1.83;;
14326;SDS011;7247;53.330;-1.180;2023-11-21T12:44:31;5.47;;;1.77;;
14326;SDS011;7247;53.330;-1.180;2023-11-21T12:46:58;6.30;;;1.60;;
14326;SDS011;7247;53.330;-1.180;2023-11-21T12:49:26;5.27;;;1.93;;
14326;SDS011;7247;53.330;-1.180;2023-11-21T12:51:53;6.37;;;2.03;;
14326;SDS011;7247;53.330;-1.180;2023-11-21T12:54:21;7.63;;;1.80;;
14326;SDS011;7247;53.330;-1.180;2023-11-21T12:56:49;7.13;;;2.10;;
14326;SDS011;7247;53.330;-1.180;2023-11-21T12:59:15;10.97;;;1.90;;
14326;SDS011;7247;53.330;-1.180;2023-11-21T13:01:43;5.33;;;1.87;;
14326;SDS011;7247;53.330;-1.180;2023-11-21T13:04:10;6.27;;;1.87;;
14326;SDS011;7247;53.330;-1.180;2023-11-21T13:06:36;4.27;;;1.60;;
14326;SDS011;7247;53.330;-1.180;2023-11-21T13:09:06;5.07;;;1.40;;
14326;SDS011;7247;53.330;-1.180;2023-11-21T13:11:37;6.17;;;1.90;;
14326;SDS011;7247;53.330;-1.180;2023-11-21T13:14:05;6.00;;;1.83;;
14326;SDS011;7247;53.330;-1.180;2023-11-21T13:16:32;4.47;;;1.90;;
14326;SDS011;7247;53.330;-1.180;2023-11-21T13:18:58;8.53;;;1.90;;
14326;SDS011;7247;53.330;-1.180;2023-11-21T13:21:25;8.77;;;2.13;;
14326;SDS011;7247;53.330;-1.180;2023-11-21T13:23:52;5.83;;;2.13;;
14326;SDS011;7247;53.330;-1.180;2023-11-21T13:26:19;4.40;;;2.30;;
14326;SDS011;7247;53.330;-1.180;2023-11-21T13:28:49;7.13;;;2.20;;
14326;SDS011;7247;53.330;-1.180;2023-11-21T13:31:16;5.97;;;2.20;;
14326;SDS011;7247;53.330;-1.180;2023-11-21T13:33:52;7.93;;;2.10;;
14326;SDS011;7247;53.330;-1.180;2023-11-21T13:36:21;9.77;;;2.47;;
14326;SDS011;7247;53.330;-1.180;2023-11-21T13:38:48;5.27;;;1.70;;
14326;SDS011;7247;53.330;-1.180;2023-11-21T13:41:15;9.77;;;2.73;;
14326;SDS011;7247;53.330;-1.180;2023-11-21T13:43:43;7.07;;;2.40;;
14326;SDS011;7247;53.330;-1.180;2023-11-21T13:46:16;4.90;;;1.87;;
14326;SDS011;7247;53.330;-1.180;2023-11-21T13:48:46;5.10;;;2.30;;
14326;SDS011;7247;53.330;-1.180;2023-11-21T13:51:15;6.73;;;3.03;;
14326;SDS011;7247;53.330;-1.180;2023-11-21T13:53:42;8.37;;;2.60;;
14326;SDS011;7247;53.330;-1.180;2023-11-21T13:56:09;6.57;;;2.37;;
14326;SDS011;7247;53.330;-1.180;2023-11-21T13:58:36;8.20;;;3.17;;
14326;SDS011;7247;53.330;-1.180;2023-11-21T14:01:09;7.10;;;2.47;;
14326;SDS011;7247;53.330;-1.180;2023-11-21T14:03:51;5.47;;;2.30;;
14326;SDS011;7247;53.330;-1.180;2023-11-21T14:06:23;6.00;;;2.17;;
14326;SDS011;7247;53.330;-1.180;2023-11-21T14:08:57;8.57;;;2.67;;
14326;SDS011;7247;53.330;-1.180;2023-11-21T14:11:25;8.33;;;2.23;;
14326;SDS011;7247;53.330;-1.180;2023-11-21T14:13:52;7.60;;;1.90;;
14326;SDS011;7247;53.330;-1.180;2023-11-21T14:16:19;4.87;;;1.77;;
14326;SDS011;7247;53.330;-1.180;2023-11-21T14:18:45;7.87;;;1.93;;
14326;SDS011;7247;53.330;-1.180;2023-11-21T14:21:22;7.30;;;2.37;;
14326;SDS011;7247;53.330;-1.180;2023-11-21T14:23:48;4.47;;;2.07;;
14326;SDS011;7247;53.330;-1.180;2023-11-21T14:26:15;4.30;;;1.90;;
14326;SDS011;7247;53.330;-1.180;2023-11-21T14:28:42;5.57;;;2.37;;
14326;SDS011;7247;53.330;-1.180;2023-11-21T14:31:08;7.87;;;2.20;;
14326;SDS011;7247;53.330;-1.180;2023-11-21T14:33:38;4.13;;;2.00;;
14326;SDS011;7247;53.330;-1.180;2023-11-21T14:36:05;5.90;;;1.90;;
14326;SDS011;7247;53.330;-1.180;2023-11-21T14:38:34;3.60;;;1.80;;
14326;SDS011;7247;53.330;-1.180;2023-11-21T14:41:01;6.27;;;1.93;;
14326;SDS011;7247;53.330;-1.180;2023-11-21T14:43:27;6.40;;;2.40;;
14326;SDS011;7247;53.330;-1.180;2023-11-21T14:45:55;5.33;;;2.03;;
14326;SDS011;7247;53.330;-1.180;2023-11-21T14:48:24;6.87;;;1.90;;
14326;SDS011;7247;53.330;-1.180;2023-11-21T14:51:07;5.97;;;1.70;;